createdAt,value
2022-12-09T00:02:19.056Z,71.42
2022-12-09T00:05:21.472Z,70.90
2022-12-09T00:08:23.915Z,70.50
2022-12-09T00:11:26.868Z,71.07
2022-12-09T00:14:29.543Z,71.69
2022-12-09T00:17:32.142Z,71.68
2022-12-09T00:20:34.794Z,71.79
2022-12-09T00:23:37.134Z,72.25
2022-12-09T00:26:40.072Z,71.57
2022-12-09T00:29:42.145Z,72.20
2022-12-09T00:32:44.394Z,71.65
2022-12-09T00:35:48.485Z,70.92
2022-12-09T00:38:51.540Z,71.19
2022-12-09T00:41:54.057Z,71.43
2022-12-09T00:44:56.324Z,71.08
2022-12-09T00:47:58.444Z,70.89
2022-12-09T00:51:02.259Z,70.99
2022-12-09T00:54:05.337Z,70.74
2022-12-09T00:57:07.668Z,71.59
2022-12-09T01:00:10.868Z,71.32
2022-12-09T01:03:15.389Z,71.35
2022-12-09T01:06:22.687Z,71.44
2022-12-09T01:09:24.979Z,70.87
2022-12-09T01:12:27.267Z,71.45
2022-12-09T01:15:29.608Z,70.93
2022-12-09T01:18:32.077Z,69.84
2022-12-09T01:21:35.466Z,70.57
2022-12-09T01:24:40.553Z,70.13
2022-12-09T01:27:43.110Z,70.50
2022-12-09T01:30:47.583Z,70.84
2022-12-09T01:33:50.545Z,70.58
2022-12-09T01:36:53.284Z,70.33
2022-12-09T01:39:55.393Z,70.90
2022-12-09T01:42:57.609Z,70.88
2022-12-09T01:46:00.833Z,70.76
2022-12-09T01:49:03.356Z,70.66
2022-12-09T01:52:19.091Z,70.58
2022-12-09T01:55:22.757Z,70.89
2022-12-09T01:58:25.508Z,70.60
2022-12-09T02:01:28.244Z,69.78
2022-12-09T02:04:35.002Z,69.79
2022-12-09T02:07:37.636Z,69.58
2022-12-09T02:11:23.610Z,69.72
2022-12-09T02:14:40.941Z,70.13
2022-12-09T02:17:58.517Z,69.29
2022-12-09T02:21:08.892Z,70.30
2022-12-09T02:24:39.288Z,70.30
2022-12-09T02:28:14.437Z,70.18
2022-12-09T02:31:40.998Z,70.09
2022-12-09T02:35:00.827Z,70.22
2022-12-09T02:38:15.741Z,69.86
2022-12-09T02:41:24.403Z,70.18
2022-12-09T02:44:27.877Z,70.03
2022-12-09T02:47:34.106Z,69.51
2022-12-09T02:50:39.279Z,69.74
2022-12-09T02:53:43.401Z,69.85
2022-12-09T02:56:55.784Z,69.62
2022-12-09T02:59:59.345Z,69.70
2022-12-09T03:03:04.748Z,70.07
2022-12-09T03:06:14.448Z,70.34
2022-12-09T03:09:28.896Z,70.52
2022-12-09T03:12:35.640Z,70.70
2022-12-09T03:15:42.311Z,70.72
2022-12-09T03:19:03.796Z,70.57
2022-12-09T03:22:09.990Z,70.22
2022-12-09T03:25:24.596Z,70.02
2022-12-09T03:28:40.153Z,70.25
2022-12-09T03:31:43.658Z,69.67
2022-12-09T03:34:48.852Z,69.84
2022-12-09T03:37:52.473Z,70.08
2022-12-09T03:41:04.086Z,70.07
2022-12-09T03:44:19.307Z,69.55
2022-12-09T03:47:21.979Z,69.50
2022-12-09T03:50:27.533Z,70.16
2022-12-09T03:53:58.815Z,70.39
2022-12-09T03:57:01.522Z,70.44
2022-12-09T04:00:06.388Z,70.44
2022-12-09T04:03:14.919Z,71.20
2022-12-09T04:06:17.218Z,71.08
2022-12-09T04:09:19.428Z,69.95
2022-12-09T04:12:21.611Z,69.86
2022-12-09T04:15:23.741Z,69.97
2022-12-09T04:18:26.289Z,70.28
2022-12-09T04:21:28.627Z,70.44
2022-12-09T04:24:31.128Z,70.01
2022-12-09T04:27:33.219Z,70.17
2022-12-09T04:30:35.527Z,70.26
2022-12-09T04:33:38.131Z,70.63
2022-12-09T04:36:40.304Z,70.31
2022-12-09T04:39:42.645Z,71.21
2022-12-09T04:42:44.795Z,71.23
2022-12-09T04:45:47.242Z,70.48
2022-12-09T04:48:49.509Z,70.43
2022-12-09T04:51:51.743Z,70.14
2022-12-09T04:54:54.059Z,70.53
2022-12-09T04:57:56.191Z,69.79
2022-12-09T05:00:58.958Z,70.07
2022-12-09T05:04:01.609Z,69.90
2022-12-09T05:07:04.252Z,70.13
2022-12-09T05:10:08.566Z,73.66
2022-12-09T05:13:11.410Z,76.12
2022-12-09T05:16:17.790Z,78.90
2022-12-09T05:19:23.641Z,82.47
2022-12-09T05:22:26.041Z,82.72
2022-12-09T05:25:28.226Z,82.54
2022-12-09T05:28:32.441Z,82.74
2022-12-09T05:31:34.893Z,82.22
2022-12-09T05:34:37.443Z,81.76
2022-12-09T05:37:39.657Z,81.33
2022-12-09T05:40:42.068Z,81.54
2022-12-09T05:43:44.735Z,81.25
2022-12-09T05:46:47.760Z,81.20
2022-12-09T05:49:50.312Z,80.93
2022-12-09T05:52:52.437Z,81.72
2022-12-09T05:55:54.939Z,81.38
2022-12-09T05:58:58.864Z,81.19
2022-12-09T06:02:05.183Z,80.70
2022-12-09T06:05:15.564Z,80.94
2022-12-09T06:08:18.009Z,80.58
2022-12-09T06:11:22.023Z,81.62
2022-12-09T06:14:25.322Z,85.63
2022-12-09T06:17:27.804Z,87.77
2022-12-09T06:20:31.349Z,94.32
2022-12-09T06:23:36.054Z,100.00
2022-12-09T06:26:38.230Z,100.00
2022-12-09T06:29:40.811Z,100.00
2022-12-09T06:32:43.148Z,100.00
2022-12-09T06:35:45.487Z,100.00
2022-12-09T06:38:48.371Z,100.00
2022-12-09T06:41:50.438Z,100.00
2022-12-09T06:44:52.884Z,100.00
2022-12-09T06:47:55.169Z,100.00
2022-12-09T06:50:57.470Z,100.00
2022-12-09T06:53:59.830Z,100.00
2022-12-09T06:57:02.583Z,100.00
2022-12-09T07:00:06.687Z,100.00
2022-12-09T07:03:12.011Z,100.00
2022-12-09T07:06:33.743Z,100.00
2022-12-09T07:09:36.237Z,100.00
2022-12-09T07:12:38.943Z,94.83
2022-12-09T07:15:41.572Z,94.17
2022-12-09T07:18:44.008Z,95.03
2022-12-09T07:21:47.033Z,88.02
2022-12-09T07:24:49.403Z,89.37
2022-12-09T07:27:51.704Z,88.66
2022-12-09T07:30:53.903Z,84.01
2022-12-09T07:33:57.905Z,81.46
2022-12-09T07:37:01.142Z,84.17
2022-12-09T07:40:04.077Z,84.76
2022-12-09T07:43:07.581Z,78.81
2022-12-09T07:46:10.237Z,81.77
2022-12-09T07:49:12.899Z,81.63
2022-12-09T07:52:15.730Z,77.76
2022-12-09T07:55:17.968Z,68.52
2022-12-09T07:58:20.943Z,73.09
2022-12-09T08:01:33.281Z,72.51
2022-12-09T08:04:36.768Z,67.81
2022-12-09T08:07:44.148Z,66.11
2022-12-09T08:10:46.834Z,70.39
2022-12-09T08:13:50.354Z,71.45
2022-12-09T08:16:53.185Z,66.00
2022-12-09T08:19:56.523Z,67.83
2022-12-09T08:22:59.192Z,69.80
2022-12-09T08:26:04.010Z,65.69
2022-12-09T08:29:11.994Z,65.34
2022-12-09T08:32:17.971Z,67.64
2022-12-09T08:35:21.765Z,67.70
2022-12-09T08:38:24.035Z,63.68
2022-12-09T08:41:36.348Z,66.60
2022-12-09T08:44:40.084Z,67.15
2022-12-09T08:47:44.458Z,64.81
2022-12-09T08:50:47.414Z,62.28
2022-12-09T08:53:49.997Z,60.38
2022-12-09T08:56:55.601Z,62.82
2022-12-09T08:59:58.477Z,58.44
2022-12-09T09:03:00.950Z,61.81
2022-12-09T09:06:10.396Z,61.78
2022-12-09T09:09:14.485Z,63.28
2022-12-09T09:12:17.463Z,63.84
2022-12-09T09:15:22.026Z,65.81
2022-12-09T09:18:26.970Z,70.33
2022-12-09T09:21:33.999Z,80.41
2022-12-09T09:24:37.746Z,88.20
2022-12-09T09:27:39.782Z,91.68
2022-12-09T09:30:42.579Z,97.78
2022-12-09T09:33:46.097Z,100.00
2022-12-09T09:36:50.476Z,90.56
2022-12-09T09:39:52.761Z,88.80
2022-12-09T09:42:58.013Z,95.93
2022-12-09T09:46:01.105Z,97.02
2022-12-09T09:49:07.670Z,95.79
2022-12-09T09:52:16.947Z,95.01
2022-12-09T09:55:43.251Z,94.14
2022-12-09T09:58:54.893Z,95.15
2022-12-09T10:02:02.256Z,93.67
2022-12-09T10:05:31.689Z,92.41
2022-12-09T10:08:34.029Z,91.52
2022-12-09T10:11:47.021Z,88.77
2022-12-09T10:15:02.975Z,86.77
2022-12-09T10:18:21.342Z,85.38
2022-12-09T10:21:24.546Z,85.01
2022-12-09T10:24:39.949Z,84.41
2022-12-09T10:28:15.496Z,83.04
2022-12-09T10:31:18.015Z,82.19
2022-12-09T10:34:20.346Z,80.00
2022-12-09T10:37:32.212Z,79.39
2022-12-09T10:40:47.426Z,77.94
2022-12-09T10:43:50.554Z,77.47
2022-12-09T10:46:59.698Z,77.72
2022-12-09T10:50:03.338Z,76.56
2022-12-09T10:53:12.917Z,77.07
2022-12-09T10:56:29.801Z,77.12
2022-12-09T10:59:32.799Z,76.96
2022-12-09T11:02:35.761Z,76.55
2022-12-09T11:05:38.526Z,76.63
2022-12-09T11:08:42.641Z,76.38
2022-12-09T11:11:49.813Z,76.38
2022-12-09T11:15:20.623Z,75.84
2022-12-09T11:18:32.381Z,75.95
2022-12-09T11:21:37.886Z,75.97
2022-12-09T11:24:41.567Z,75.84
2022-12-09T11:28:03.406Z,75.48
2022-12-09T11:31:35.081Z,75.12
2022-12-09T11:34:37.954Z,75.03
2022-12-09T11:37:40.876Z,75.12
2022-12-09T11:40:59.015Z,74.93
2022-12-09T11:44:01.711Z,74.21
2022-12-09T11:47:11.406Z,74.71
2022-12-09T11:50:17.657Z,74.08
2022-12-09T11:53:32.561Z,73.96
2022-12-09T11:56:40.286Z,74.01
2022-12-09T11:59:53.974Z,73.92
2022-12-09T12:03:16.010Z,74.27
2022-12-09T12:06:29.085Z,73.77
2022-12-09T12:09:39.918Z,75.62
2022-12-09T12:12:57.374Z,75.43
2022-12-09T12:16:09.152Z,76.52
2022-12-09T12:19:27.326Z,77.14
2022-12-09T12:22:54.706Z,78.46
2022-12-09T12:29:32.813Z,80.43
2022-12-09T12:33:53.437Z,81.28
2022-12-09T12:36:50.347Z,82.22
2022-12-09T12:40:26.763Z,83.51
2022-12-09T12:43:51.067Z,85.72
2022-12-09T12:47:05.089Z,86.32
2022-12-09T12:50:39.331Z,84.65
2022-12-09T12:54:09.352Z,84.97
2022-12-09T12:57:32.843Z,86.02
2022-12-09T13:01:02.595Z,86.13
2022-12-09T13:04:24.181Z,85.28
2022-12-09T13:09:03.033Z,84.82
2022-12-09T13:12:17.063Z,84.75
2022-12-09T13:15:23.108Z,84.57
2022-12-09T13:18:29.496Z,85.36
2022-12-09T13:21:31.947Z,99.58
2022-12-09T13:24:46.609Z,99.10
2022-12-09T13:27:58.027Z,93.00
2022-12-09T13:31:01.565Z,91.26
2022-12-09T13:34:39.014Z,90.09
2022-12-09T13:37:43.746Z,89.63
2022-12-09T13:40:45.919Z,88.43
2022-12-09T13:44:03.704Z,90.03
2022-12-09T13:47:34.594Z,96.67
2022-12-09T13:50:59.976Z,100.00
2022-12-09T13:54:04.600Z,100.00
2022-12-09T13:57:17.981Z,100.00
2022-12-09T14:00:21.051Z,100.00
2022-12-09T14:03:31.624Z,100.00
2022-12-09T14:06:43.126Z,100.00
2022-12-09T14:09:45.310Z,100.00
2022-12-09T14:12:51.807Z,81.65
2022-12-09T14:16:27.854Z,71.69
2022-12-09T14:19:48.873Z,68.16
2022-12-09T14:23:09.759Z,63.82
2022-12-09T14:26:36.472Z,80.44
2022-12-09T14:30:06.702Z,88.32
2022-12-09T14:33:44.811Z,90.81
2022-12-09T14:36:56.458Z,91.12
2022-12-09T14:40:54.882Z,92.36
2022-12-09T14:44:18.968Z,93.81
2022-12-09T14:47:48.665Z,92.17
2022-12-09T14:51:19.144Z,92.73
2022-12-09T14:54:26.523Z,91.82
2022-12-09T14:57:36.543Z,92.61
2022-12-09T15:00:42.173Z,92.33
2022-12-09T15:03:59.682Z,92.44
2022-12-09T15:07:18.771Z,92.51
2022-12-09T15:10:38.688Z,91.80
2022-12-09T15:13:44.185Z,91.62
2022-12-09T15:16:50.680Z,91.85
2022-12-09T15:20:01.402Z,91.06
2022-12-09T15:23:11.011Z,91.31
2022-12-09T15:26:30.069Z,89.67
2022-12-09T15:29:35.325Z,90.30
2022-12-09T15:32:40.282Z,90.26
2022-12-09T15:35:50.125Z,90.84
2022-12-09T15:39:04.031Z,90.09
2022-12-09T15:42:10.981Z,90.76
2022-12-09T15:45:20.983Z,90.22
2022-12-09T15:48:29.329Z,92.23
2022-12-09T15:51:34.397Z,93.60
2022-12-09T15:54:41.503Z,96.60
2022-12-09T15:57:45.217Z,100.00
2022-12-09T16:00:49.401Z,100.00
2022-12-09T16:03:54.884Z,100.00
2022-12-09T16:07:06.472Z,100.00
2022-12-09T16:10:16.433Z,100.00
2022-12-09T16:13:19.283Z,100.00
2022-12-09T16:16:27.056Z,100.00
2022-12-09T16:19:29.550Z,100.00
2022-12-09T16:22:33.094Z,100.00
2022-12-09T16:25:38.869Z,100.00
2022-12-09T16:28:40.889Z,100.00
2022-12-09T16:31:43.216Z,100.00
2022-12-09T16:34:57.158Z,100.00
2022-12-09T16:37:59.423Z,100.00
2022-12-09T16:41:07.816Z,100.00
2022-12-09T16:44:39.602Z,100.00
2022-12-09T16:47:41.971Z,100.00
2022-12-09T16:50:52.240Z,100.00
2022-12-09T16:53:54.933Z,100.00
2022-12-09T16:56:57.888Z,100.00
2022-12-09T16:59:59.889Z,100.00
2022-12-09T17:03:09.473Z,100.00
2022-12-09T17:06:17.200Z,100.00
2022-12-09T17:09:19.469Z,100.00
2022-12-09T17:12:21.621Z,100.00
2022-12-09T17:15:23.899Z,100.00
2022-12-09T17:18:26.888Z,100.00
2022-12-09T17:21:29.284Z,100.00
2022-12-09T17:24:31.261Z,100.00
2022-12-09T17:27:33.416Z,100.00
2022-12-09T17:30:39.373Z,100.00
2022-12-09T17:33:41.757Z,99.75
2022-12-09T17:36:43.962Z,95.14
2022-12-09T17:39:53.685Z,93.85
2022-12-09T17:42:57.934Z,93.30
2022-12-09T17:46:04.675Z,92.28
2022-12-09T17:49:06.788Z,90.48
2022-12-09T17:52:08.837Z,90.06
2022-12-09T17:55:12.011Z,90.44
2022-12-09T17:58:14.498Z,91.23
2022-12-09T18:01:19.814Z,89.87
2022-12-09T18:04:43.433Z,88.35
2022-12-09T18:07:48.746Z,86.24
2022-12-09T18:10:50.923Z,85.78
2022-12-09T18:13:54.235Z,84.18
2022-12-09T18:16:56.401Z,83.73
2022-12-09T18:19:58.528Z,83.63
2022-12-09T18:23:00.609Z,83.37
2022-12-09T18:26:07.386Z,81.87
2022-12-09T18:29:11.403Z,83.00
2022-12-09T18:32:13.822Z,82.76
2022-12-09T18:35:15.772Z,82.51
2022-12-09T18:38:18.369Z,81.69
2022-12-09T18:41:24.017Z,80.71
2022-12-09T18:44:26.683Z,80.99
2022-12-09T18:47:28.750Z,79.54
2022-12-09T18:50:30.782Z,79.71
2022-12-09T18:53:32.853Z,80.88
2022-12-09T18:56:35.578Z,80.41
2022-12-09T18:59:37.720Z,80.67
2022-12-09T19:02:39.827Z,79.88
2022-12-09T19:06:45.316Z,81.47
2022-12-09T19:09:47.374Z,80.98
2022-12-09T19:12:55.081Z,82.26
2022-12-09T19:16:04.448Z,81.87
2022-12-09T19:19:10.393Z,81.65
2022-12-09T19:22:13.129Z,82.43
2022-12-09T19:25:15.341Z,82.36
2022-12-09T19:28:17.687Z,82.24
2022-12-09T19:31:24.930Z,82.84
2022-12-09T19:34:29.344Z,82.46
2022-12-09T19:37:31.762Z,83.04
2022-12-09T19:40:34.128Z,83.39
2022-12-09T19:43:36.466Z,82.39
2022-12-09T19:46:38.938Z,82.98
2022-12-09T19:49:42.794Z,82.29
2022-12-09T19:52:44.901Z,82.11
2022-12-09T19:55:49.090Z,82.24
2022-12-09T19:58:52.200Z,81.76
2022-12-09T20:01:55.094Z,81.37
2022-12-09T20:04:57.241Z,81.77
2022-12-09T20:07:59.384Z,81.28
2022-12-09T20:11:01.595Z,81.17
2022-12-09T20:14:06.254Z,80.19
2022-12-09T20:17:09.058Z,81.96
2022-12-09T20:20:11.491Z,80.40
2022-12-09T20:23:13.669Z,79.21
2022-12-09T20:26:21.678Z,80.11
2022-12-09T20:29:25.733Z,80.42
2022-12-09T20:32:30.232Z,80.47
2022-12-09T20:35:32.201Z,80.30
2022-12-09T20:38:37.519Z,81.91
2022-12-09T20:41:49.261Z,81.02
2022-12-09T20:44:51.960Z,81.84
2022-12-09T20:47:59.864Z,82.13
2022-12-09T20:51:27.657Z,83.62
2022-12-09T20:54:31.097Z,83.85
2022-12-09T20:57:33.842Z,82.76
2022-12-09T21:00:36.026Z,83.50
2022-12-09T21:03:38.270Z,81.72
2022-12-09T21:06:43.444Z,82.14
2022-12-09T21:09:46.897Z,81.31
2022-12-09T21:12:50.249Z,80.78
2022-12-09T21:15:56.015Z,80.98
2022-12-09T21:19:07.424Z,82.56
2022-12-09T21:22:09.638Z,81.89
2022-12-09T21:25:11.787Z,84.15
2022-12-09T21:28:21.864Z,85.45
2022-12-09T21:31:39.727Z,86.92
2022-12-09T21:34:41.901Z,85.77
2022-12-09T21:37:44.938Z,86.21
2022-12-09T21:40:47.205Z,86.26
2022-12-09T21:43:49.386Z,86.40
2022-12-09T21:46:51.565Z,85.58
2022-12-09T21:50:06.596Z,84.16
2022-12-09T21:53:09.481Z,81.65
2022-12-09T21:56:16.030Z,81.57
2022-12-09T21:59:18.903Z,81.18
2022-12-09T22:02:21.419Z,79.68
2022-12-09T22:05:24.528Z,81.17
2022-12-09T22:08:28.412Z,81.67
2022-12-09T22:11:34.545Z,81.47
2022-12-09T22:14:37.247Z,82.22
2022-12-09T22:18:05.511Z,82.85
2022-12-09T22:21:28.957Z,82.31
2022-12-09T22:24:31.585Z,81.58
2022-12-09T22:27:34.158Z,80.58
2022-12-09T22:30:37.924Z,80.61
2022-12-09T22:33:42.033Z,78.92
2022-12-09T22:36:44.707Z,77.94
2022-12-09T22:39:49.066Z,77.43
2022-12-09T22:42:52.083Z,77.18
2022-12-09T22:45:54.049Z,76.39
2022-12-09T22:48:57.802Z,76.27
2022-12-09T22:52:00.748Z,75.40
2022-12-09T22:55:02.923Z,74.76
2022-12-09T22:58:05.142Z,75.73
2022-12-09T23:01:18.999Z,75.47
2022-12-09T23:04:22.895Z,75.47
2022-12-09T23:07:25.102Z,75.95
2022-12-09T23:10:27.227Z,75.79
2022-12-09T23:13:29.998Z,75.47
2022-12-09T23:16:32.116Z,75.08
2022-12-09T23:19:34.237Z,75.77
2022-12-09T23:22:36.395Z,75.41
2022-12-09T23:25:38.890Z,75.01
2022-12-09T23:28:47.868Z,74.90
2022-12-09T23:31:50.553Z,75.30
2022-12-09T23:34:52.747Z,75.06
2022-12-09T23:37:54.811Z,74.95
2022-12-09T23:40:56.799Z,74.77
2022-12-09T23:44:00.705Z,75.32
2022-12-09T23:47:02.788Z,75.04
2022-12-09T23:50:06.564Z,74.46
2022-12-09T23:53:08.965Z,73.78
2022-12-09T23:56:17.283Z,73.30
2022-12-09T23:59:21.845Z,73.30
